^^
Meteo Knjazevac Station Historical Data
Daily Summary for January 1, 2021 Units:  Both    English   Metric
Daily Weekly Monthly Yearly Custom
  High: Low: Average:
Temperature: 58.3 °F /  14.6 °C 53.1 °F /  11.7 °C 56.7 °F /  13.7 °C
Dew Point: 50 °F /  10 °C 48.4 °F /  9.1 °C 49.3 °F /  9.6 °C
Humidity: 84% 73% 76%
Wind Speed: 5mph /  8km/h - 2.3mph /  3.7km/h
Wind Gust: 10mph /  16.1km/h - -
Wind- - SW
Pressure: 30.34 in /  1027.3 hPa 30.34 in /  1027.3 hPa -
Precipitation: 0.00 in /  0 mm    
Historical Graphs
 
 
Tabular Data for January 1, 2021
Time Temperature Dew Point Pressure Wind Wind Speed Wind Gust Humidity Rainfall Rate (Hourly) solar Conditions
00:00 58.3 °F /  14.6 °C 50 °F /  10 °C 30.34in /  1027.3hPa North 2mph /  3.2km/h 7mph /  11.3km/h 74% 0.00in /  0mm 0 W/m2
00:10 58.3 °F /  14.6 °C 50 °F /  10 °C 30.34in /  1027.3hPa North 3mph /  4.8km/h 8mph /  12.9km/h 74% 0.00in /  0mm 0 W/m2
00:20 58.1 °F /  14.5 °C 49.9 °F /  9.9 °C 30.34in /  1027.3hPa North 5mph /  8km/h 8mph /  12.9km/h 74% 0.00in /  0mm 0 W/m2
00:30 58.1 °F /  14.5 °C 49.9 °F /  9.9 °C 30.34in /  1027.3hPa North 3mph /  4.8km/h 6mph /  9.7km/h 74% 0.00in /  0mm 0 W/m2
00:40 58.1 °F /  14.5 °C 49.5 °F /  9.7 °C 30.34in /  1027.3hPa North 3mph /  4.8km/h 8mph /  12.9km/h 73% 0.00in /  0mm 0 W/m2
00:50 58.1 °F /  14.5 °C 49.5 °F /  9.7 °C 30.34in /  1027.3hPa North 5mph /  8km/h 8mph /  12.9km/h 73% 0.00in /  0mm 0 W/m2
01:00 57.9 °F /  14.4 °C 49.3 °F /  9.6 °C 30.34in /  1027.3hPa North 3mph /  4.8km/h 7mph /  11.3km/h 73% 0.00in /  0mm 0 W/m2
01:10 57.9 °F /  14.4 °C 49.7 °F /  9.8 °C 30.34in /  1027.3hPa North 2mph /  3.2km/h 6mph /  9.7km/h 74% 0.00in /  0mm 0 W/m2
01:20 57.7 °F /  14.3 °C 49.1 °F /  9.5 °C 30.34in /  1027.3hPa North 5mph /  8km/h 7mph /  11.3km/h 73% 0.00in /  0mm 0 W/m2
01:30 57.6 °F /  14.2 °C 49 °F /  9.4 °C 30.34in /  1027.3hPa North 3mph /  4.8km/h 8mph /  12.9km/h 73% 0.00in /  0mm 0 W/m2
01:40 57.4 °F /  14.1 °C 49.2 °F /  9.6 °C 30.34in /  1027.3hPa NNW 2mph /  3.2km/h 10mph /  16.1km/h 74% 0.00in /  0mm 0 W/m2
01:50 57.2 °F /  14 °C 49 °F /  9.4 °C 30.34in /  1027.3hPa NNW 1mph /  1.6km/h 6mph /  9.7km/h 74% 0.00in /  0mm 0 W/m2
02:00 57 °F /  13.9 °C 49.2 °F /  9.6 °C 30.34in /  1027.3hPa NNW 2mph /  3.2km/h 5mph /  8km/h 75% 0.00in /  0mm 0 W/m2
02:10 56.8 °F /  13.8 °C 49 °F /  9.4 °C 30.34in /  1027.3hPa North 1mph /  1.6km/h 5mph /  8km/h 75% 0.00in /  0mm 0 W/m2
02:20 56.5 °F /  13.6 °C 49.3 °F /  9.6 °C 30.34in /  1027.3hPa North 1mph /  1.6km/h 5mph /  8km/h 77% 0.00in /  0mm 0 W/m2
02:30 55.8 °F /  13.2 °C 49.3 °F /  9.6 °C 30.34in /  1027.3hPa East 2mph /  3.2km/h 4mph /  6.4km/h 79% 0.00in /  0mm 0 W/m2
02:40 55 °F /  12.8 °C 49 °F /  9.4 °C 30.34in /  1027.3hPa SSE 1mph /  1.6km/h 3mph /  4.8km/h 80% 0.00in /  0mm 0 W/m2
02:50 54.3 °F /  12.4 °C 48.6 °F /  9.2 °C 30.34in /  1027.3hPa SSE 2mph /  3.2km/h 4mph /  6.4km/h 81% 0.00in /  0mm 0 W/m2
03:00 54 °F /  12.2 °C 48.9 °F /  9.4 °C 30.34in /  1027.3hPa SSE 1mph /  1.6km/h 3mph /  4.8km/h 83% 0.00in /  0mm 0 W/m2
03:10 53.6 °F /  12 °C 48.5 °F /  9.2 °C 30.34in /  1027.3hPa South 1mph /  1.6km/h 2mph /  3.2km/h 83% 0.00in /  0mm 0 W/m2
03:20 53.1 °F /  11.7 °C 48.4 °F /  9.1 °C 30.34in /  1027.3hPa Calm   2mph /  3.2km/h 84% 0.00in /  0mm 0 W/m2
Knjazevac, Serbia
Compliments of Weather Underground - 2 mb